createdAt,value
2019-01-26T00:00:25.304Z,21.30
2019-01-26T00:01:31.833Z,29.30
2019-01-26T00:02:24.797Z,26.20
2019-01-26T00:03:24.198Z,25.70
2019-01-26T00:04:24.389Z,26.90
2019-01-26T00:05:24.873Z,29.70
2019-01-26T00:06:24.184Z,28.40
2019-01-26T00:07:24.011Z,28.50
2019-01-26T00:08:23.889Z,25.90
2019-01-26T00:09:23.985Z,28.30
2019-01-26T00:10:24.225Z,30.80
2019-01-26T00:11:25.171Z,31.20
2019-01-26T00:12:25.210Z,28.60
2019-01-26T00:13:25.044Z,31.60
2019-01-26T00:14:51.125Z,29.00
2019-01-26T00:15:24.895Z,28.90
2019-01-26T00:16:26.397Z,29.00
2019-01-26T00:17:24.566Z,30.50
2019-01-26T00:18:24.658Z,28.80
2019-01-26T00:20:24.890Z,28.40
2019-01-26T00:21:25.132Z,29.90
2019-01-26T00:22:24.452Z,30.90
2019-01-26T00:23:23.873Z,33.10
2019-01-26T00:24:24.443Z,31.30
2019-01-26T00:25:24.216Z,33.80
2019-01-26T00:26:24.859Z,28.60
2019-01-26T00:27:24.336Z,28.80
2019-01-26T00:28:23.782Z,30.00
2019-01-26T00:29:24.007Z,33.40
2019-01-26T00:30:24.708Z,33.30
2019-01-26T00:31:23.986Z,33.70
2019-01-26T00:32:23.793Z,30.90
2019-01-26T00:33:23.944Z,34.00
2019-01-26T00:34:24.800Z,30.00
2019-01-26T00:35:24.465Z,29.90
2019-01-26T00:36:23.723Z,33.20
2019-01-26T00:37:23.998Z,35.50
2019-01-26T00:38:24.875Z,38.30
2019-01-26T00:39:24.312Z,35.20
2019-01-26T00:40:23.921Z,35.10
2019-01-26T00:41:23.544Z,38.50
2019-01-26T00:42:24.576Z,37.20
2019-01-26T00:43:23.527Z,41.90
2019-01-26T00:44:24.134Z,40.40
2019-01-26T00:45:25.700Z,39.30
2019-01-26T00:46:28.385Z,39.60
2019-01-26T00:47:26.784Z,40.00
2019-01-26T00:48:25.585Z,40.00
2019-01-26T00:49:25.528Z,37.60
2019-01-26T00:50:24.306Z,39.20
2019-01-26T00:51:25.779Z,40.40
2019-01-26T00:52:24.801Z,39.60
2019-01-26T00:53:25.048Z,45.90
2019-01-26T00:54:24.684Z,42.90
2019-01-26T00:55:25.615Z,44.40
2019-01-26T00:56:33.366Z,46.40
2019-01-26T00:57:24.846Z,44.40
2019-01-26T00:58:24.333Z,47.80
2019-01-26T00:59:23.457Z,43.80
2019-01-26T01:00:24.300Z,42.60
2019-01-26T01:01:24.436Z,40.90
2019-01-26T01:02:25.191Z,40.80
2019-01-26T01:03:24.712Z,44.70
2019-01-26T01:04:24.017Z,51.40
2019-01-26T01:05:24.100Z,43.80
2019-01-26T01:06:26.086Z,46.70
2019-01-26T01:07:30.120Z,50.00
2019-01-26T01:08:24.225Z,50.20
2019-01-26T01:09:25.307Z,52.00
2019-01-26T01:10:23.788Z,51.70
2019-01-26T01:11:24.063Z,49.80
2019-01-26T01:13:31.950Z,55.50
2019-01-26T01:15:47.585Z,55.30
2019-01-26T01:16:55.096Z,54.00
2019-01-26T01:17:57.873Z,53.80
2019-01-26T01:18:55.159Z,56.50
2019-01-26T01:19:47.586Z,55.80
2019-01-26T01:20:47.561Z,52.30
2019-01-26T01:21:55.074Z,54.70
2019-01-26T01:22:47.521Z,61.00
2019-01-26T01:23:55.085Z,58.90
2019-01-26T01:24:47.484Z,55.10
2019-01-26T01:25:55.078Z,55.20
2019-01-26T01:26:47.461Z,58.30
2019-01-26T01:27:47.441Z,59.70
2019-01-26T01:28:54.993Z,58.60
2019-01-26T01:29:47.464Z,57.00
2019-01-26T01:30:47.409Z,59.50
2019-01-26T01:31:54.968Z,56.80
2019-01-26T01:32:47.393Z,60.60
2019-01-26T01:33:54.958Z,56.30
2019-01-26T01:34:47.479Z,57.80
2019-01-26T01:35:54.936Z,51.70
2019-01-26T01:36:47.375Z,60.20
2019-01-26T01:37:47.347Z,62.70
2019-01-26T01:38:54.906Z,54.10
2019-01-26T01:39:47.343Z,51.70
2019-01-26T01:40:47.338Z,55.60
2019-01-26T01:41:47.315Z,58.70
2019-01-26T01:42:47.289Z,56.70
2019-01-26T01:43:47.296Z,62.40
2019-01-26T01:44:47.330Z,53.40
2019-01-26T01:45:47.262Z,58.50
2019-01-26T01:46:54.821Z,58.30
2019-01-26T01:47:47.367Z,57.80
2019-01-26T01:48:47.241Z,56.90
2019-01-26T01:49:54.764Z,54.00
2019-01-26T01:50:47.213Z,58.20
2019-01-26T01:51:47.204Z,56.00
2019-01-26T01:52:47.177Z,55.10
2019-01-26T01:53:47.180Z,57.50
2019-01-26T01:54:47.174Z,54.30
2019-01-26T01:55:47.144Z,54.90
2019-01-26T01:56:47.143Z,53.90
2019-01-26T01:57:54.714Z,60.50
2019-01-26T01:58:47.137Z,55.90
2019-01-26T01:59:54.668Z,59.10
2019-01-26T02:00:47.149Z,53.70
2019-01-26T02:01:54.635Z,55.60
2019-01-26T02:02:47.094Z,52.60
2019-01-26T02:03:54.620Z,51.50
2019-01-26T02:04:47.116Z,57.80
2019-01-26T02:05:47.056Z,52.60
2019-01-26T02:06:47.067Z,59.50
2019-01-26T02:07:47.015Z,57.50
2019-01-26T02:08:47.014Z,63.30
2019-01-26T02:09:54.587Z,52.30
2019-01-26T02:10:47.007Z,56.00
2019-01-26T02:11:46.973Z,52.80
2019-01-26T02:12:54.531Z,65.30
2019-01-26T02:13:46.965Z,56.80
2019-01-26T02:14:46.983Z,52.50
2019-01-26T02:15:47.769Z,54.60
2019-01-26T02:16:50.160Z,57.50
2019-01-26T02:17:54.473Z,54.10
2019-01-26T02:18:46.910Z,53.20
2019-01-26T02:19:54.457Z,53.80
2019-01-26T02:20:46.887Z,57.80
2019-01-26T02:21:46.902Z,57.80
2019-01-26T02:22:46.913Z,54.30
2019-01-26T02:23:46.886Z,58.10
2019-01-26T02:24:46.837Z,55.80
2019-01-26T02:25:54.450Z,59.90
2019-01-26T02:26:46.826Z,56.40
2019-01-26T02:27:46.821Z,59.90
2019-01-26T02:28:46.821Z,52.20
2019-01-26T02:29:46.806Z,53.20
2019-01-26T02:30:46.792Z,53.50
2019-01-26T02:31:54.333Z,58.60
2019-01-26T02:32:46.781Z,52.90
2019-01-26T02:33:54.291Z,56.40
2019-01-26T02:34:46.744Z,56.20
2019-01-26T02:35:46.719Z,51.40
2019-01-26T02:36:46.749Z,51.60
2019-01-26T02:37:46.704Z,50.10
2019-01-26T02:38:46.724Z,54.90
2019-01-26T02:39:46.677Z,53.90
2019-01-26T02:40:46.726Z,57.90
2019-01-26T02:41:46.666Z,50.90
2019-01-26T02:42:46.665Z,51.90
2019-01-26T02:43:46.655Z,53.40
2019-01-26T02:44:54.179Z,56.70
2019-01-26T02:45:46.629Z,54.20
2019-01-26T02:46:46.621Z,48.50
2019-01-26T02:47:46.622Z,52.00
2019-01-26T02:48:46.579Z,50.70
2019-01-26T02:49:54.145Z,48.20
2019-01-26T02:50:46.568Z,47.10
2019-01-26T02:51:46.556Z,46.60
2019-01-26T02:52:46.956Z,48.00
2019-01-26T02:53:46.543Z,42.10
2019-01-26T02:54:46.545Z,51.80
2019-01-26T02:55:54.086Z,42.70
2019-01-26T02:56:46.514Z,50.50
2019-01-26T02:57:46.528Z,43.80
2019-01-26T02:58:46.489Z,49.10
2019-01-26T02:59:46.501Z,45.50
2019-01-26T03:00:54.052Z,47.60
2019-01-26T03:01:46.459Z,49.30
2019-01-26T03:02:46.450Z,44.90
2019-01-26T03:03:54.012Z,45.00
2019-01-26T03:04:46.425Z,44.30
2019-01-26T03:05:46.420Z,43.10
2019-01-26T03:06:46.416Z,47.80
2019-01-26T03:07:46.390Z,47.30
2019-01-26T03:08:46.390Z,45.70
2019-01-26T03:09:46.386Z,44.60
2019-01-26T03:10:46.355Z,43.80
2019-01-26T03:11:53.905Z,44.60
2019-01-26T03:12:46.337Z,45.30
2019-01-26T03:13:46.359Z,43.00
2019-01-26T03:14:46.350Z,50.90
2019-01-26T03:15:46.314Z,45.50
2019-01-26T03:16:54.855Z,46.10
2019-01-26T03:17:46.307Z,48.60
2019-01-26T03:18:46.343Z,47.20
2019-01-26T03:19:46.280Z,53.80
2019-01-26T03:20:46.280Z,56.40
2019-01-26T03:21:53.800Z,50.90
2019-01-26T03:22:46.259Z,50.00
2019-01-26T03:23:46.247Z,50.90
2019-01-26T03:24:46.256Z,59.70
2019-01-26T03:25:46.218Z,54.00
2019-01-26T03:26:46.226Z,59.80
2019-01-26T03:27:46.206Z,55.90
2019-01-26T03:28:46.173Z,59.30
2019-01-26T03:29:53.730Z,57.50
2019-01-26T03:30:46.204Z,56.10
2019-01-26T03:31:46.133Z,64.80
2019-01-26T03:32:46.149Z,60.10
2019-01-26T03:33:46.112Z,57.20
2019-01-26T03:34:46.131Z,66.90
2019-01-26T03:35:53.651Z,75.10
2019-01-26T03:36:46.102Z,58.50
2019-01-26T03:37:53.636Z,61.40
2019-01-26T03:38:46.125Z,67.60
2019-01-26T03:39:46.089Z,61.90
2019-01-26T03:40:53.617Z,71.60
2019-01-26T03:41:46.082Z,63.50
2019-01-26T03:42:46.052Z,75.70
2019-01-26T03:43:53.560Z,72.40
2019-01-26T03:44:46.005Z,73.40
2019-01-26T03:45:46.036Z,76.20
2019-01-26T03:46:46.018Z,76.30
2019-01-26T03:47:46.000Z,72.80
2019-01-26T03:48:45.988Z,77.30
2019-01-26T03:49:53.722Z,80.20
2019-01-26T03:50:45.963Z,74.90
2019-01-26T03:51:45.944Z,73.00
2019-01-26T03:52:54.502Z,76.10
2019-01-26T03:53:45.934Z,72.40
2019-01-26T03:54:45.903Z,88.20
2019-01-26T03:55:45.906Z,75.40
2019-01-26T03:56:45.889Z,82.60
2019-01-26T03:57:45.871Z,81.20
2019-01-26T03:58:45.858Z,94.60
2019-01-26T03:59:45.891Z,88.70
2019-01-26T04:00:45.877Z,83.40
2019-01-26T04:01:45.842Z,89.90
2019-01-26T04:02:45.814Z,86.50
2019-01-26T04:03:45.800Z,90.80
2019-01-26T04:04:45.819Z,94.30
2019-01-26T04:05:45.833Z,83.40
2019-01-26T04:06:45.803Z,88.80
2019-01-26T04:07:45.775Z,83.10
2019-01-26T04:08:45.814Z,83.10
2019-01-26T04:09:45.746Z,82.50
2019-01-26T04:10:45.739Z,82.60
2019-01-26T04:11:45.771Z,84.70
2019-01-26T04:12:45.725Z,84.10
2019-01-26T04:13:45.713Z,90.40
2019-01-26T04:14:45.721Z,87.00
2019-01-26T04:15:45.716Z,91.70
2019-01-26T04:16:45.731Z,83.70
2019-01-26T04:17:45.698Z,90.00
2019-01-26T04:18:45.669Z,91.90
2019-01-26T04:19:45.671Z,92.50
2019-01-26T04:20:45.702Z,85.50
2019-01-26T04:21:45.692Z,89.80
2019-01-26T04:22:45.623Z,85.00
2019-01-26T04:23:45.610Z,90.40
2019-01-26T04:24:45.639Z,83.80
2019-01-26T04:25:45.580Z,93.90
2019-01-26T04:26:45.589Z,92.10
2019-01-26T04:27:45.595Z,85.60
2019-01-26T04:28:45.561Z,92.30
2019-01-26T04:29:45.555Z,85.00
2019-01-26T04:30:45.542Z,84.00
2019-01-26T04:31:53.073Z,75.50
2019-01-26T04:32:45.565Z,102.00
2019-01-26T04:33:45.499Z,92.90
2019-01-26T04:34:45.484Z,94.70
2019-01-26T04:35:45.474Z,90.40
2019-01-26T04:36:45.484Z,87.40
2019-01-26T04:37:45.514Z,85.50
2019-01-26T04:38:45.488Z,98.70
2019-01-26T04:39:53.005Z,88.10
2019-01-26T04:40:45.504Z,100.50
2019-01-26T04:41:45.423Z,90.60
2019-01-26T04:42:45.427Z,88.20
2019-01-26T04:43:45.435Z,82.40
2019-01-26T04:44:52.971Z,93.20
2019-01-26T04:45:45.393Z,83.80
2019-01-26T04:46:45.359Z,86.50
2019-01-26T04:47:45.385Z,84.00
2019-01-26T04:48:45.362Z,78.20
2019-01-26T04:49:45.331Z,84.50
2019-01-26T04:50:45.349Z,80.70
2019-01-26T04:51:45.321Z,89.80
2019-01-26T04:52:45.302Z,83.80
2019-01-26T04:53:45.319Z,86.60
2019-01-26T04:54:45.301Z,80.00
2019-01-26T04:55:45.315Z,88.10
2019-01-26T04:56:45.258Z,89.60
2019-01-26T04:57:45.247Z,83.90
2019-01-26T04:58:45.275Z,92.70
2019-01-26T04:59:45.252Z,86.80
2019-01-26T05:00:45.244Z,93.80
2019-01-26T05:01:45.238Z,85.10
2019-01-26T05:02:45.198Z,88.30
2019-01-26T05:03:45.207Z,90.90
2019-01-26T05:04:45.202Z,86.80
2019-01-26T05:05:45.190Z,93.60
2019-01-26T05:06:45.172Z,92.60
2019-01-26T05:07:45.184Z,91.30
2019-01-26T05:08:45.193Z,96.60
2019-01-26T05:09:45.142Z,87.20
2019-01-26T05:10:45.113Z,94.80
2019-01-26T05:11:52.666Z,91.70
2019-01-26T05:12:45.127Z,88.30
2019-01-26T05:13:45.153Z,100.10
2019-01-26T05:14:45.129Z,86.10
2019-01-26T05:15:45.077Z,87.60
2019-01-26T05:16:52.632Z,97.30
2019-01-26T05:17:45.085Z,94.80
2019-01-26T05:18:52.619Z,100.00
2019-01-26T05:19:45.090Z,89.80
2019-01-26T05:20:45.024Z,101.40
2019-01-26T05:21:45.016Z,96.40
2019-01-26T05:22:45.005Z,92.30
2019-01-26T05:23:52.550Z,92.40
2019-01-26T05:24:45.012Z,102.10
2019-01-26T05:25:52.527Z,90.90
2019-01-26T05:26:45.004Z,84.90
2019-01-26T05:27:52.516Z,103.10
2019-01-26T05:28:44.982Z,103.20
2019-01-26T05:29:44.969Z,96.90
2019-01-26T05:30:44.989Z,103.30
2019-01-26T05:31:44.897Z,98.40
2019-01-26T05:32:52.445Z,103.70
2019-01-26T05:33:44.891Z,106.40
2019-01-26T05:34:52.492Z,93.10
2019-01-26T05:35:44.891Z,104.90
2019-01-26T05:36:52.398Z,98.60
2019-01-26T05:37:44.884Z,98.00
2019-01-26T05:38:44.840Z,91.40
2019-01-26T05:39:52.400Z,96.50
2019-01-26T05:40:44.859Z,90.40
2019-01-26T05:41:52.374Z,99.70
2019-01-26T05:42:44.805Z,96.70
2019-01-26T05:43:44.806Z,93.60
2019-01-26T05:44:44.775Z,87.60
2019-01-26T05:45:44.780Z,95.60
2019-01-26T05:46:44.765Z,92.30
2019-01-26T05:47:52.300Z,102.70
2019-01-26T05:48:44.747Z,102.00
2019-01-26T05:49:44.713Z,96.20
2019-01-26T05:50:44.747Z,99.00
2019-01-26T05:51:44.706Z,88.30
2019-01-26T05:52:52.239Z,103.10
2019-01-26T05:53:44.682Z,96.50
2019-01-26T05:54:52.247Z,91.60
2019-01-26T05:55:44.732Z,100.00
2019-01-26T05:56:52.213Z,94.00
2019-01-26T05:57:44.659Z,89.70
2019-01-26T05:58:44.619Z,88.00
2019-01-26T05:59:44.644Z,94.30
2019-01-26T06:00:44.654Z,89.60
2019-01-26T06:01:52.159Z,85.10
2019-01-26T06:02:44.586Z,91.60
2019-01-26T06:03:44.579Z,101.20
2019-01-26T06:04:52.113Z,96.60
2019-01-26T06:05:44.599Z,89.70
2019-01-26T06:06:52.149Z,88.90
2019-01-26T06:07:44.559Z,94.00
2019-01-26T06:08:52.116Z,95.80
2019-01-26T06:09:44.530Z,88.40
2019-01-26T06:10:52.096Z,105.90
2019-01-26T06:11:44.559Z,97.40
2019-01-26T06:12:52.079Z,87.10
2019-01-26T06:13:44.470Z,89.80
2019-01-26T06:14:52.036Z,95.10
2019-01-26T06:15:44.513Z,94.20
2019-01-26T06:16:44.449Z,93.80
2019-01-26T06:17:44.444Z,93.80
2019-01-26T06:18:44.417Z,83.10
2019-01-26T06:19:51.979Z,82.60
2019-01-26T06:20:44.398Z,84.70
2019-01-26T06:21:51.942Z,83.70
2019-01-26T06:22:44.375Z,84.60
2019-01-26T06:23:44.387Z,91.00
2019-01-26T06:24:44.366Z,86.60
2019-01-26T06:25:44.336Z,80.20
2019-01-26T06:26:51.907Z,82.90
2019-01-26T06:27:44.352Z,78.70
2019-01-26T06:28:51.887Z,87.90
2019-01-26T06:29:44.318Z,86.20
2019-01-26T06:30:44.306Z,81.00
2019-01-26T06:31:51.838Z,79.40
2019-01-26T06:32:44.327Z,87.80
2019-01-26T06:33:44.266Z,85.80
2019-01-26T06:34:51.814Z,81.40
2019-01-26T06:35:44.285Z,83.40
2019-01-26T06:36:44.225Z,80.80
2019-01-26T06:37:51.819Z,80.80
2019-01-26T06:38:44.236Z,78.90
2019-01-26T06:39:44.217Z,78.80
2019-01-26T06:40:44.224Z,75.30
2019-01-26T06:41:44.172Z,74.10
2019-01-26T06:42:51.748Z,82.50
2019-01-26T06:43:44.157Z,75.60
2019-01-26T06:44:44.183Z,76.50
2019-01-26T06:45:44.131Z,71.90
2019-01-26T06:46:44.131Z,78.30
2019-01-26T06:47:51.700Z,88.40
2019-01-26T06:48:44.152Z,81.10
2019-01-26T06:49:51.702Z,77.60
2019-01-26T06:50:44.106Z,83.00
2019-01-26T06:51:44.089Z,83.60
2019-01-26T06:52:44.088Z,78.00
2019-01-26T06:53:44.133Z,77.60
2019-01-26T06:54:51.646Z,77.50
2019-01-26T06:55:44.064Z,78.50
2019-01-26T06:56:44.024Z,78.00
2019-01-26T06:57:44.040Z,72.30
2019-01-26T06:58:44.018Z,66.70
2019-01-26T06:59:44.007Z,67.80
2019-01-26T07:00:43.993Z,72.60
2019-01-26T07:01:43.983Z,70.00
2019-01-26T07:02:51.511Z,68.80
2019-01-26T07:03:43.998Z,69.00
2019-01-26T07:04:51.552Z,66.40
2019-01-26T07:05:43.949Z,76.40
2019-01-26T07:06:43.930Z,69.00
2019-01-26T07:07:43.927Z,74.10
2019-01-26T07:08:43.928Z,67.50
2019-01-26T07:09:43.884Z,72.30
2019-01-26T07:10:43.899Z,66.20
2019-01-26T07:11:43.910Z,73.70
2019-01-26T11:56:58.858Z,63.90
2019-01-26T11:58:57.493Z,30.50
2019-01-26T12:00:00.223Z,29.20
2019-01-26T19:04:08.452Z,36.00
2019-01-26T19:05:09.109Z,7.00
2019-01-26T19:06:16.480Z,7.10
2019-01-26T19:07:08.878Z,6.90
2019-01-26T23:40:20.673Z,6.50
2019-01-26T23:41:20.744Z,5.80
2019-01-26T23:42:21.184Z,4.50
2019-01-26T23:43:19.443Z,4.60
2019-01-26T23:44:19.967Z,4.90
2019-01-26T23:45:19.666Z,4.90
2019-01-26T23:46:20.339Z,6.20
2019-01-26T23:47:20.569Z,4.30
2019-01-26T23:48:21.139Z,4.90
2019-01-26T23:49:19.615Z,5.50
2019-01-26T23:50:20.808Z,3.60
2019-01-26T23:51:23.383Z,5.90
2019-01-26T23:52:20.245Z,4.90
2019-01-26T23:53:19.415Z,4.90
2019-01-26T23:54:19.728Z,5.50
2019-01-26T23:55:20.538Z,4.50
2019-01-26T23:56:19.591Z,4.50
2019-01-26T23:57:20.999Z,2.70
2019-01-26T23:58:19.361Z,3.30
2019-01-26T23:59:19.626Z,2.40
